createdAt,value
2023-09-23T00:00:13.161Z,15.33
2023-09-23T00:02:44.425Z,15.04
2023-09-23T00:05:16.446Z,14.93
2023-09-23T00:07:46.091Z,14.72
2023-09-23T00:10:14.389Z,14.60
2023-09-23T00:12:43.001Z,14.70
2023-09-23T00:15:12.889Z,14.06
2023-09-23T00:17:42.502Z,13.88
2023-09-23T00:20:17.603Z,13.88
2023-09-23T00:22:48.098Z,13.99
2023-09-23T00:25:19.911Z,14.01
2023-09-23T00:27:50.164Z,13.91
2023-09-23T00:30:19.164Z,13.89
2023-09-23T00:32:50.038Z,14.04
2023-09-23T00:35:20.038Z,14.27
2023-09-23T00:37:51.452Z,14.43
2023-09-23T00:40:24.943Z,14.63
2023-09-23T00:42:53.304Z,14.77
2023-09-23T00:45:23.420Z,14.82
2023-09-23T00:47:53.288Z,14.95
2023-09-23T00:50:21.951Z,15.01
2023-09-23T00:52:55.187Z,15.03
2023-09-23T00:55:25.438Z,15.05
2023-09-23T00:57:55.353Z,14.99
2023-09-23T01:00:28.317Z,14.97
2023-09-23T01:02:57.629Z,14.71
2023-09-23T01:05:28.781Z,14.67
2023-09-23T01:08:12.406Z,14.59
2023-09-23T01:10:41.488Z,14.54
2023-09-23T01:13:09.998Z,14.42
2023-09-23T01:15:41.683Z,14.34
2023-09-23T01:18:14.963Z,14.22
2023-09-23T01:20:44.205Z,14.17
2023-09-23T01:23:14.460Z,14.29
2023-09-23T01:25:44.620Z,14.33
2023-09-23T01:28:14.781Z,14.29
2023-09-23T01:30:45.315Z,14.33
2023-09-23T01:33:15.256Z,14.38
2023-09-23T01:35:45.074Z,14.32
2023-09-23T01:38:16.719Z,14.42
2023-09-23T01:40:46.023Z,14.63
2023-09-23T01:43:15.651Z,14.74
2023-09-23T01:45:44.190Z,14.75
2023-09-23T01:48:12.826Z,14.60
2023-09-23T01:50:42.845Z,14.78
2023-09-23T01:53:20.114Z,14.80
2023-09-23T01:55:49.885Z,14.85
2023-09-23T01:58:18.162Z,14.92
2023-09-23T02:00:46.476Z,14.91
2023-09-23T02:03:16.079Z,14.93
2023-09-23T02:05:44.551Z,14.98
2023-09-23T02:08:13.061Z,14.95
2023-09-23T02:10:45.500Z,15.05
2023-09-23T02:13:15.356Z,15.07
2023-09-23T02:15:46.828Z,15.06
2023-09-23T02:18:16.372Z,15.06
2023-09-23T02:20:45.292Z,15.05
2023-09-23T02:23:15.502Z,15.10
2023-09-23T02:25:44.482Z,15.09
2023-09-23T02:28:14.713Z,15.16
2023-09-23T02:30:43.305Z,14.48
2023-09-23T02:33:11.703Z,15.04
2023-09-23T02:35:41.299Z,15.15
2023-09-23T02:38:11.363Z,14.50
2023-09-23T02:40:44.362Z,15.14
2023-09-23T02:43:14.109Z,15.17
2023-09-23T02:45:42.445Z,15.18
2023-09-23T02:48:14.753Z,15.22
2023-09-23T02:50:43.554Z,15.28
2023-09-23T02:53:12.081Z,15.29
2023-09-23T02:55:42.921Z,15.28
2023-09-23T02:58:11.477Z,15.32
2023-09-23T03:00:42.225Z,15.32
2023-09-23T03:03:20.406Z,15.24
2023-09-23T03:05:56.401Z,15.28
2023-09-23T03:08:25.291Z,15.33
2023-09-23T03:10:54.315Z,15.42
2023-09-23T03:13:24.984Z,15.44
2023-09-23T03:15:59.303Z,15.50
2023-09-23T03:18:34.815Z,15.41
2023-09-23T03:21:09.375Z,15.43
2023-09-23T03:23:38.895Z,15.29
2023-09-23T03:26:08.136Z,15.22
2023-09-23T03:28:38.017Z,15.20
2023-09-23T03:31:10.158Z,15.31
2023-09-23T03:33:46.165Z,15.42
2023-09-23T03:36:17.124Z,15.41
2023-09-23T03:38:47.898Z,15.53
2023-09-23T03:41:16.437Z,15.46
2023-09-23T03:43:44.896Z,15.50
2023-09-23T03:46:17.422Z,15.52
2023-09-23T03:48:46.566Z,15.56
2023-09-23T03:51:16.149Z,15.58
2023-09-23T03:53:46.155Z,15.60
2023-09-23T03:56:14.658Z,15.65
2023-09-23T03:58:44.561Z,15.65
2023-09-23T04:01:15.722Z,15.55
2023-09-23T04:03:44.951Z,15.43
2023-09-23T04:06:13.390Z,15.53
2023-09-23T04:08:42.091Z,15.56
2023-09-23T04:11:10.522Z,15.57
2023-09-23T04:13:39.312Z,15.54
2023-09-23T04:16:07.696Z,15.52
2023-09-23T04:18:38.367Z,15.55
2023-09-23T04:21:06.814Z,15.57
2023-09-23T04:23:35.166Z,15.52
2023-09-23T04:26:04.489Z,15.56
2023-09-23T04:28:33.646Z,15.58
2023-09-23T04:31:01.992Z,15.54
2023-09-23T04:33:30.488Z,15.43
2023-09-23T04:36:00.245Z,15.49
2023-09-23T04:38:28.651Z,15.56
2023-09-23T04:40:56.952Z,15.55
2023-09-23T04:43:26.801Z,15.55
2023-09-23T04:45:55.370Z,15.58
2023-09-23T04:48:26.008Z,15.54
2023-09-23T04:50:57.286Z,15.38
2023-09-23T04:53:28.282Z,15.44
2023-09-23T04:55:56.642Z,15.46
2023-09-23T04:58:24.954Z,15.55
2023-09-23T05:00:53.708Z,15.55
2023-09-23T05:03:24.457Z,15.55
2023-09-23T05:05:53.033Z,15.58
2023-09-23T05:08:21.378Z,15.60
2023-09-23T05:10:51.249Z,15.73
2023-09-23T05:13:19.615Z,15.74
2023-09-23T05:15:47.996Z,15.77
2023-09-23T05:18:16.316Z,15.74
2023-09-23T05:20:44.592Z,15.77
2023-09-23T05:23:13.115Z,15.75
2023-09-23T05:25:42.485Z,15.77
2023-09-23T05:28:12.309Z,15.78
2023-09-23T05:30:40.755Z,15.59
2023-09-23T05:33:10.001Z,15.71
2023-09-23T05:35:40.305Z,15.64
2023-09-23T05:38:10.721Z,15.64
2023-09-23T05:40:39.102Z,15.67
2023-09-23T05:43:07.787Z,15.71
2023-09-23T05:45:39.064Z,15.64
2023-09-23T05:48:08.896Z,15.93
2023-09-23T05:50:37.752Z,16.02
2023-09-23T05:53:06.495Z,16.04
2023-09-23T05:55:34.849Z,16.03
2023-09-23T05:58:03.281Z,16.04
2023-09-23T06:00:31.626Z,16.10
2023-09-23T06:03:01.680Z,16.14
2023-09-23T06:05:30.113Z,16.17
2023-09-23T06:07:58.525Z,16.24
2023-09-23T06:10:26.852Z,16.10
2023-09-23T06:12:55.647Z,16.21
2023-09-23T06:15:24.185Z,16.27
2023-09-23T06:17:52.598Z,16.32
2023-09-23T06:20:22.333Z,16.38
2023-09-23T06:22:50.648Z,16.40
2023-09-23T06:25:19.456Z,16.47
2023-09-23T06:27:48.097Z,16.52
2023-09-23T06:30:16.804Z,16.51
2023-09-23T06:32:45.799Z,16.45
2023-09-23T06:35:15.709Z,16.49
2023-09-23T06:37:45.501Z,16.40
2023-09-23T06:40:14.048Z,16.39
2023-09-23T06:42:42.372Z,16.39
2023-09-23T06:45:11.557Z,16.42
2023-09-23T06:47:40.003Z,16.44
2023-09-23T06:50:09.532Z,16.41
2023-09-23T06:52:38.010Z,16.53
2023-09-23T06:55:08.729Z,16.50
2023-09-23T06:57:36.889Z,16.58
2023-09-23T07:00:08.668Z,16.53
2023-09-23T07:02:37.416Z,16.44
2023-09-23T07:05:06.693Z,16.70
2023-09-23T07:07:35.073Z,16.72
2023-09-23T07:10:05.308Z,16.80
2023-09-23T07:12:35.233Z,16.75
2023-09-23T07:15:03.580Z,16.83
2023-09-23T07:17:31.906Z,16.90
2023-09-23T07:20:00.300Z,16.93
2023-09-23T07:22:28.605Z,16.97
2023-09-23T07:24:57.188Z,17.01
2023-09-23T07:27:25.785Z,16.99
2023-09-23T07:29:55.846Z,17.02
2023-09-23T07:32:24.252Z,16.99
2023-09-23T07:34:53.337Z,16.92
2023-09-23T07:37:21.992Z,16.93
2023-09-23T07:39:50.249Z,16.94
2023-09-23T07:42:18.663Z,17.01
2023-09-23T07:44:47.079Z,17.03
2023-09-23T07:47:16.675Z,17.03
2023-09-23T07:49:45.124Z,17.29
2023-09-23T07:52:13.415Z,17.31
2023-09-23T07:54:41.732Z,17.37
2023-09-23T07:57:09.966Z,17.47
2023-09-23T07:59:38.226Z,17.40
2023-09-23T08:02:06.666Z,17.43
2023-09-23T08:04:36.508Z,17.52
2023-09-23T08:07:05.246Z,17.79
2023-09-23T08:09:33.549Z,18.03
2023-09-23T08:12:01.793Z,18.11
2023-09-23T08:14:30.576Z,18.11
2023-09-23T08:16:58.958Z,18.16
2023-09-23T08:19:27.200Z,18.07
2023-09-23T08:21:56.846Z,18.21
2023-09-23T08:24:25.139Z,18.55
2023-09-23T08:26:54.545Z,18.57
2023-09-23T08:29:25.088Z,18.50
2023-09-23T08:31:53.622Z,18.57
2023-09-23T08:34:22.025Z,18.48
2023-09-23T08:36:50.262Z,18.50
2023-09-23T08:39:20.506Z,18.42
2023-09-23T08:41:53.586Z,18.43
2023-09-23T08:44:26.596Z,18.58
2023-09-23T08:46:59.583Z,18.63
2023-09-23T08:49:31.986Z,18.51
2023-09-23T08:52:06.593Z,18.71
2023-09-23T08:54:38.639Z,18.84
2023-09-23T08:57:07.065Z,19.12
2023-09-23T08:59:35.466Z,19.58
2023-09-23T09:02:04.240Z,20.09
2023-09-23T09:04:32.701Z,20.46
2023-09-23T09:07:00.979Z,20.64
2023-09-23T09:09:29.226Z,20.88
2023-09-23T09:12:00.103Z,20.94
2023-09-23T09:14:28.489Z,21.04
2023-09-23T09:16:56.841Z,20.81
2023-09-23T09:19:25.148Z,20.83
2023-09-23T09:21:54.482Z,20.76
2023-09-23T09:24:23.573Z,20.57
2023-09-23T09:26:53.052Z,20.68
2023-09-23T09:29:23.090Z,20.67
2023-09-23T09:31:53.242Z,20.70
2023-09-23T09:34:26.949Z,20.56
2023-09-23T09:36:58.334Z,20.47
2023-09-23T09:39:31.947Z,20.57
2023-09-23T09:42:01.056Z,20.68
2023-09-23T09:44:32.306Z,20.74
2023-09-23T09:47:01.424Z,20.65
2023-09-23T09:49:30.235Z,20.60
2023-09-23T09:51:58.866Z,20.76
2023-09-23T09:54:27.692Z,20.87
2023-09-23T09:56:57.242Z,20.71
2023-09-23T09:59:28.360Z,20.85
2023-09-23T10:02:00.198Z,20.17
2023-09-23T10:04:33.512Z,19.21
2023-09-23T10:07:03.081Z,19.01
2023-09-23T10:09:34.509Z,18.51
2023-09-23T10:12:05.515Z,18.23
2023-09-23T10:14:34.838Z,18.46
2023-09-23T10:17:06.942Z,18.20
2023-09-23T10:19:40.141Z,17.73
2023-09-23T10:22:14.959Z,17.42
2023-09-23T10:24:43.558Z,17.44
2023-09-23T10:27:12.584Z,17.34
2023-09-23T10:29:46.836Z,17.00
2023-09-23T10:32:18.666Z,16.86
2023-09-23T10:34:49.378Z,16.80
2023-09-23T10:37:27.714Z,16.90
2023-09-23T10:39:56.058Z,17.06
2023-09-23T10:42:24.693Z,17.29
2023-09-23T10:44:53.335Z,17.50
2023-09-23T10:47:23.127Z,17.67
2023-09-23T10:49:51.399Z,17.79
2023-09-23T10:52:19.741Z,17.84
2023-09-23T10:54:50.237Z,17.75
2023-09-23T10:57:18.585Z,17.66
2023-09-23T10:59:48.010Z,17.34
2023-09-23T11:02:16.256Z,17.54
2023-09-23T11:04:50.815Z,17.48
2023-09-23T11:07:19.299Z,17.60
2023-09-23T11:09:48.703Z,17.40
2023-09-23T11:12:18.656Z,17.57
2023-09-23T11:14:48.667Z,17.34
2023-09-23T11:17:26.487Z,17.34
2023-09-23T11:19:58.097Z,17.45
2023-09-23T11:22:27.363Z,17.44
2023-09-23T11:24:57.607Z,17.28
2023-09-23T11:27:28.087Z,17.10
2023-09-23T11:29:57.647Z,16.88
2023-09-23T11:32:27.252Z,16.78
2023-09-23T11:34:58.183Z,16.34
2023-09-23T11:37:26.517Z,16.79
2023-09-23T11:39:55.126Z,17.02
2023-09-23T11:42:23.353Z,17.05
2023-09-23T11:44:51.683Z,17.08
2023-09-23T11:47:22.542Z,17.23
2023-09-23T11:49:52.124Z,17.19
2023-09-23T11:52:21.801Z,17.26
2023-09-23T11:54:50.117Z,17.38
2023-09-23T11:57:18.426Z,17.58
2023-09-23T11:59:46.810Z,17.71
2023-09-23T12:02:15.386Z,17.77
2023-09-23T12:04:43.752Z,17.95
2023-09-23T12:07:12.251Z,17.95
2023-09-23T12:09:42.049Z,18.13
2023-09-23T12:12:11.575Z,17.99
2023-09-23T12:14:43.724Z,18.01
2023-09-23T12:17:15.578Z,17.78
2023-09-23T12:19:45.356Z,17.43
2023-09-23T12:22:17.033Z,17.29
2023-09-23T12:24:47.341Z,17.45
2023-09-23T12:27:15.650Z,17.31
2023-09-23T12:29:43.909Z,17.31
2023-09-23T12:32:13.035Z,17.22
2023-09-23T12:34:41.698Z,17.19
2023-09-23T12:37:10.748Z,17.20
2023-09-23T12:39:38.962Z,17.15
2023-09-23T12:42:08.759Z,17.24
2023-09-23T12:44:37.132Z,17.50
2023-09-23T12:47:05.930Z,17.50
2023-09-23T12:49:34.263Z,17.73
2023-09-23T12:52:02.556Z,17.95
2023-09-23T12:54:31.017Z,18.05
2023-09-23T12:56:59.284Z,18.16
2023-09-23T12:59:29.439Z,18.10
2023-09-23T13:01:57.910Z,18.10
2023-09-23T13:04:26.560Z,18.15
2023-09-23T13:06:54.893Z,18.21
2023-09-23T13:09:23.180Z,18.27
2023-09-23T13:11:51.559Z,18.27
2023-09-23T13:14:22.249Z,18.27
2023-09-23T13:16:52.556Z,18.37
2023-09-23T13:19:20.914Z,18.53
2023-09-23T13:21:49.279Z,18.51
2023-09-23T13:24:17.624Z,18.65
2023-09-23T13:26:46.007Z,18.70
2023-09-23T13:29:15.575Z,18.73
2023-09-23T13:31:43.916Z,18.93
2023-09-23T13:34:13.528Z,19.16
2023-09-23T13:36:41.901Z,19.33
2023-09-23T13:39:10.493Z,19.55
2023-09-23T13:41:39.195Z,19.75
2023-09-23T13:44:08.613Z,19.66
2023-09-23T13:46:37.988Z,19.64
2023-09-23T13:49:06.460Z,19.73
2023-09-23T13:51:36.216Z,19.55
2023-09-23T13:54:05.043Z,19.64
2023-09-23T13:56:33.278Z,19.39
2023-09-23T13:59:01.875Z,19.20
2023-09-23T14:01:30.678Z,19.15
2023-09-23T14:03:59.001Z,18.73
2023-09-23T14:06:27.315Z,18.57
2023-09-23T14:08:56.913Z,18.59
2023-09-23T14:11:25.854Z,18.62
2023-09-23T14:13:54.233Z,18.55
2023-09-23T14:16:23.439Z,18.66
2023-09-23T14:18:51.807Z,18.73
2023-09-23T14:21:20.132Z,18.78
2023-09-23T14:23:48.426Z,18.85
2023-09-23T14:26:18.600Z,18.80
2023-09-23T14:28:47.321Z,18.70
2023-09-23T14:31:15.958Z,18.80
2023-09-23T14:33:44.344Z,18.80
2023-09-23T14:36:12.633Z,18.80
2023-09-23T14:38:40.869Z,18.65
2023-09-23T14:41:09.867Z,18.80
2023-09-23T14:43:39.572Z,18.82
2023-09-23T14:46:08.163Z,18.74
2023-09-23T14:48:36.500Z,18.94
2023-09-23T14:51:04.922Z,19.05
2023-09-23T14:53:33.759Z,19.21
2023-09-23T14:56:02.117Z,19.27
2023-09-23T14:58:30.472Z,19.25
2023-09-23T15:01:00.259Z,19.21
2023-09-23T15:03:29.056Z,19.15
2023-09-23T15:05:57.437Z,19.14
2023-09-23T15:08:25.829Z,18.95
2023-09-23T15:10:54.601Z,19.21
2023-09-23T15:13:22.912Z,19.22
2023-09-23T15:15:51.236Z,19.06
2023-09-23T15:18:20.997Z,19.07
2023-09-23T15:20:49.325Z,19.26
2023-09-23T15:23:17.723Z,19.40
2023-09-23T15:25:46.074Z,19.38
2023-09-23T15:28:14.591Z,19.41
2023-09-23T15:30:43.881Z,18.94
2023-09-23T15:33:12.424Z,19.51
2023-09-23T15:35:42.283Z,19.45
2023-09-23T15:38:12.355Z,19.48
2023-09-23T15:40:44.019Z,19.38
2023-09-23T15:43:12.910Z,19.51
2023-09-23T15:45:43.679Z,19.48
2023-09-23T15:48:12.275Z,19.49
2023-09-23T15:50:41.964Z,19.46
2023-09-23T15:53:10.310Z,19.56
2023-09-23T15:55:38.946Z,19.60
2023-09-23T15:58:07.164Z,19.61
2023-09-23T16:00:35.556Z,19.69
2023-09-23T16:03:03.981Z,19.72
2023-09-23T16:05:32.281Z,19.82
2023-09-23T16:08:01.919Z,19.80
2023-09-23T16:10:30.204Z,19.82
2023-09-23T16:12:58.544Z,19.75
2023-09-23T16:15:26.918Z,19.72
2023-09-23T16:17:55.213Z,19.72
2023-09-23T16:20:23.579Z,19.81
2023-09-23T16:22:52.975Z,19.70
2023-09-23T16:25:22.612Z,19.70
2023-09-23T16:27:50.894Z,19.47
2023-09-23T16:30:19.240Z,19.31
2023-09-23T16:32:47.572Z,19.47
2023-09-23T16:35:16.022Z,19.38
2023-09-23T16:37:45.074Z,19.33
2023-09-23T16:40:14.795Z,19.36
2023-09-23T16:42:44.510Z,19.32
2023-09-23T16:45:12.847Z,19.23
2023-09-23T16:47:41.276Z,19.24
2023-09-23T16:50:10.286Z,19.29
2023-09-23T16:52:38.652Z,19.26
2023-09-23T16:55:07.691Z,19.17
2023-09-23T16:57:36.438Z,19.09
2023-09-23T17:00:08.650Z,19.09
2023-09-23T17:02:37.187Z,19.12
2023-09-23T17:05:06.525Z,19.02
2023-09-23T17:07:35.569Z,19.06
2023-09-23T17:10:05.059Z,19.00
2023-09-23T17:12:33.805Z,19.05
2023-09-23T17:15:02.728Z,19.08
2023-09-23T17:17:33.076Z,18.93
2023-09-23T17:20:01.922Z,18.95
2023-09-23T17:22:30.273Z,18.75
2023-09-23T17:24:58.541Z,18.76
2023-09-23T17:27:27.205Z,18.82
2023-09-23T17:29:55.683Z,18.72
2023-09-23T17:32:24.203Z,18.81
2023-09-23T17:34:53.785Z,18.67
2023-09-23T17:37:22.518Z,18.80
2023-09-23T17:39:50.728Z,18.92
2023-09-23T17:42:19.443Z,18.98
2023-09-23T17:44:49.574Z,19.03
2023-09-23T17:47:17.926Z,19.10
2023-09-23T17:49:46.457Z,19.13
2023-09-23T17:52:16.140Z,19.13
2023-09-23T17:54:44.830Z,19.02
2023-09-23T17:57:13.093Z,19.00
2023-09-23T17:59:41.404Z,18.90
2023-09-23T18:02:10.378Z,18.86
2023-09-23T18:04:39.500Z,18.72
2023-09-23T18:07:08.084Z,18.67
2023-09-23T18:09:39.580Z,18.59
2023-09-23T18:12:09.876Z,18.58
2023-09-23T18:14:38.271Z,18.50
2023-09-23T18:17:06.485Z,18.56
2023-09-23T18:19:37.931Z,18.55
2023-09-23T18:22:06.469Z,18.58
2023-09-23T18:24:34.865Z,18.04
2023-09-23T18:27:04.813Z,18.54
2023-09-23T18:29:33.137Z,18.50
2023-09-23T18:32:01.499Z,18.49
2023-09-23T18:34:29.857Z,18.46
2023-09-23T18:36:58.319Z,18.38
2023-09-23T18:39:26.632Z,18.37
2023-09-23T18:41:54.914Z,18.38
2023-09-23T18:44:24.858Z,18.27
2023-09-23T18:46:53.170Z,18.17
2023-09-23T18:49:21.553Z,18.21
2023-09-23T18:51:49.802Z,18.22
2023-09-23T18:54:18.048Z,18.16
2023-09-23T18:56:46.982Z,18.23
2023-09-23T18:59:16.367Z,18.25
2023-09-23T19:01:46.064Z,18.28
2023-09-23T19:04:14.392Z,18.27
2023-09-23T19:06:42.761Z,18.25
2023-09-23T19:09:12.027Z,18.27
2023-09-23T19:11:40.661Z,17.95
2023-09-23T19:14:09.114Z,17.72
2023-09-23T19:16:37.459Z,17.62
2023-09-23T19:19:07.156Z,17.51
2023-09-23T19:21:35.898Z,17.36
2023-09-23T19:24:04.290Z,17.17
2023-09-23T19:26:44.797Z,16.79
2023-09-23T19:29:21.005Z,16.44
2023-09-23T19:31:49.478Z,16.68
2023-09-23T19:34:19.133Z,16.88
2023-09-23T19:36:47.396Z,16.94
2023-09-23T19:39:17.958Z,17.07
2023-09-23T19:41:46.145Z,17.23
2023-09-23T19:44:14.596Z,17.28
2023-09-23T19:46:43.109Z,17.29
2023-09-23T19:49:11.368Z,17.29
2023-09-23T19:51:41.032Z,17.34
2023-09-23T19:54:11.054Z,17.38
2023-09-23T19:56:39.407Z,17.38
2023-09-23T19:59:07.667Z,17.36
2023-09-23T20:01:37.830Z,17.43
2023-09-23T20:04:06.397Z,17.43
2023-09-23T20:06:35.063Z,17.49
2023-09-23T20:09:05.383Z,17.48
2023-09-23T20:11:33.721Z,17.44
2023-09-23T20:14:02.016Z,17.36
2023-09-23T20:18:59.368Z,17.17
2023-09-23T20:21:28.562Z,17.18
2023-09-23T20:23:56.960Z,17.05
2023-09-23T20:26:26.643Z,16.99
2023-09-23T20:28:54.978Z,16.94
2023-09-23T20:31:23.252Z,16.92
2023-09-23T20:33:51.615Z,16.94
2023-09-23T20:36:20.853Z,16.79
2023-09-23T20:38:49.989Z,16.73
2023-09-23T20:41:18.381Z,16.68
2023-09-23T20:43:50.958Z,16.54
2023-09-23T20:46:19.507Z,16.47
2023-09-23T20:48:47.803Z,16.55
2023-09-23T20:51:17.586Z,16.67
2023-09-23T20:53:46.447Z,16.77
2023-09-23T20:56:15.181Z,16.78
2023-09-23T20:58:43.570Z,16.76
2023-09-23T21:01:13.253Z,16.84
2023-09-23T21:03:42.515Z,16.85
2023-09-23T21:06:10.924Z,16.81
2023-09-23T21:08:39.244Z,16.75
2023-09-23T21:11:08.912Z,16.69
2023-09-23T21:13:37.140Z,16.68
2023-09-23T21:16:06.354Z,16.76
2023-09-23T21:18:36.465Z,16.90
2023-09-23T21:21:05.003Z,16.81
2023-09-23T21:23:33.444Z,16.70
2023-09-23T21:26:01.657Z,16.69
2023-09-23T21:28:30.258Z,16.64
2023-09-23T21:30:58.496Z,16.61
2023-09-23T21:33:27.115Z,16.68
2023-09-23T21:35:56.976Z,16.71
2023-09-23T21:38:25.291Z,16.73
2023-09-23T21:40:53.518Z,16.75
2023-09-23T21:43:21.795Z,16.78
2023-09-23T21:45:51.447Z,16.77
2023-09-23T21:48:19.872Z,16.78
2023-09-23T21:50:58.921Z,16.59
2023-09-23T21:53:28.472Z,16.59
2023-09-23T21:55:58.555Z,16.37
2023-09-23T21:58:27.486Z,16.48
2023-09-23T22:01:01.243Z,16.39
2023-09-23T22:03:32.250Z,16.46
2023-09-23T22:06:02.450Z,16.38
2023-09-23T22:08:31.186Z,16.36
2023-09-23T22:10:59.536Z,16.35
2023-09-23T22:13:29.662Z,16.31
2023-09-23T22:15:58.005Z,16.34
2023-09-23T22:18:26.440Z,16.36
2023-09-23T22:20:54.713Z,16.47
2023-09-23T22:23:24.482Z,16.43
2023-09-23T22:25:54.150Z,16.48
2023-09-23T22:28:22.467Z,16.47
2023-09-23T22:30:51.483Z,16.53
2023-09-23T22:33:19.925Z,16.60
2023-09-23T22:35:48.836Z,16.64
2023-09-23T22:38:18.268Z,16.62
2023-09-23T22:40:50.864Z,16.70
2023-09-23T22:43:19.478Z,16.75
2023-09-23T22:45:47.764Z,16.74
2023-09-23T22:48:16.082Z,16.66
2023-09-23T22:50:45.484Z,16.63
2023-09-23T22:53:14.202Z,16.53
2023-09-23T22:55:42.679Z,16.57
2023-09-23T22:58:12.348Z,16.57
2023-09-23T23:00:40.964Z,16.55
2023-09-23T23:03:09.424Z,16.46
2023-09-23T23:05:38.980Z,16.46
2023-09-23T23:08:09.203Z,16.46
2023-09-23T23:10:38.348Z,16.47
2023-09-23T23:13:10.730Z,16.49
2023-09-23T23:15:41.641Z,16.42
2023-09-23T23:18:10.777Z,16.43
2023-09-23T23:20:39.844Z,16.50
2023-09-23T23:23:08.320Z,16.44
2023-09-23T23:25:38.218Z,16.46
2023-09-23T23:28:08.257Z,16.52
2023-09-23T23:30:38.180Z,16.52
2023-09-23T23:33:08.228Z,16.54
2023-09-23T23:35:38.518Z,16.51
2023-09-23T23:38:07.071Z,16.57
2023-09-23T23:40:35.360Z,16.60
2023-09-23T23:43:04.166Z,16.63
2023-09-23T23:45:32.432Z,16.59
2023-09-23T23:48:00.767Z,16.58
2023-09-23T23:50:31.397Z,16.54
2023-09-23T23:52:59.631Z,16.54
2023-09-23T23:55:27.952Z,16.51
2023-09-23T23:57:56.235Z,16.54
